KJYO

Leesburg Executive Airport

Leesburg, Virginia, USA
METAR KJYO 220955Z AUTO 17005KT 10SM OVC011 20/16 A3011 RMK AO2
Observed Flight Rules
May-22 @ 09:55 UTC (16 minutes ago) Marginal Visual Flight Rules
Wind Visibility Clouds
170° at 5 knots 10 miles
  • Overcast at 1,100' AGL
Temperatures Readings
Current 20°C / 68°F
Dewpoint 16°C / 61°F
Humidity 78%
Altimeter 30.11" Hg
Pressure 1020 hPa
Elevation 119
METAR KJYO 220955Z AUTO 17005KT 10SM OVC011 20/16 A3011 RMK AO2
Observed Flight Rules
May-22 @ 09:55 UTC
(16 minutes ago)
MVFR
Wind Visibility
170° at 5 knots 10 miles
Clouds
  • Overcast at 1,100' AGL
Temperature Dewpoint
20°C / 68°F 16°C / 61°F
Humidity Altimeter Pressure
78% 30.11" Hg 1020 hPa